Poitiers-Biard Airport

Airport
ICAO code: 
LFBI
IATA Code: 
PIS
Summary
ICAO Region: 
EUR
Territory: 
Location: 
, Poitou-Charentes
Serving: 
Poitiers
Elevation: 
423 ft
Coordinates: 
Aerial View: 
46° 35' 15.882" N, 0° 18' 23.998" E
Metar
Observation
LFBI 060430Z AUTO 29007KT 9999 OVC048 05/04 Q1017 NOSIG
Station
Poitiers
Date/Time
2021-12-06 04:30:00
Wind direction
290°
Wind speed
07 kts
Lowest cloud amount
overcast
Temperature
5°C
Dew point
4°C
Humidity
93%
QNH
1017 hPa
Weather condition
n/a

Runways

Designator Length Width Surface Rops
3/21 2350 45 ASP Yes/Yes
Airport map: 
Aerial View: 

SKYbrary Partners:

Safety knowledge contributed by: